sensor_id;sensor_type;location;lat;lon;timestamp;P1;durP1;ratioP1;P2;durP2;ratioP2
69636;SDS011;56860;51.144;16.954;2023-12-20T00:00:59;8.7;;;11.6;;
69636;SDS011;56860;51.144;16.954;2023-12-20T00:01:59;8.7;;;11.6;;
69636;SDS011;56860;51.144;16.954;2023-12-20T00:02:59;8.3;;;12.1;;
69636;SDS011;56860;51.144;16.954;2023-12-20T00:03:59;8.2;;;13.1;;
69636;SDS011;56860;51.144;16.954;2023-12-20T00:04:59;8.2;;;13.1;;
69636;SDS011;56860;51.144;16.954;2023-12-20T00:05:59;8.7;;;11.5;;
69636;SDS011;56860;51.144;16.954;2023-12-20T00:06:59;8.8;;;11.8;;
69636;SDS011;56860;51.144;16.954;2023-12-20T00:07:59;8.8;;;11.8;;
69636;SDS011;56860;51.144;16.954;2023-12-20T00:08:59;9.1;;;11.2;;
69636;SDS011;56860;51.144;16.954;2023-12-20T00:09:59;9.1;;;11.7;;
69636;SDS011;56860;51.144;16.954;2023-12-20T00:10:59;9.1;;;11.7;;
69636;SDS011;56860;51.144;16.954;2023-12-20T00:11:59;8.4;;;10.7;;
69636;SDS011;56860;51.144;16.954;2023-12-20T00:12:59;8.4;;;11.7;;
69636;SDS011;56860;51.144;16.954;2023-12-20T00:13:59;8.4;;;11.7;;
69636;SDS011;56860;51.144;16.954;2023-12-20T00:14:59;8.6;;;13.1;;
69636;SDS011;56860;51.144;16.954;2023-12-20T00:15:59;8.5;;;13.0;;
69636;SDS011;56860;51.144;16.954;2023-12-20T00:16:59;8.5;;;13.0;;
69636;SDS011;56860;51.144;16.954;2023-12-20T00:17:59;8.5;;;13.4;;
69636;SDS011;56860;51.144;16.954;2023-12-20T00:18:59;8.6;;;13.5;;
69636;SDS011;56860;51.144;16.954;2023-12-20T00:19:59;8.6;;;13.5;;
69636;SDS011;56860;51.144;16.954;2023-12-20T00:20:59;7.8;;;12.9;;
69636;SDS011;56860;51.144;16.954;2023-12-20T00:21:59;7.9;;;12.7;;
69636;SDS011;56860;51.144;16.954;2023-12-20T00:22:59;7.9;;;12.7;;
69636;SDS011;56860;51.144;16.954;2023-12-20T00:23:59;8.3;;;13.7;;
69636;SDS011;56860;51.144;16.954;2023-12-20T00:24:59;8.0;;;10.4;;
69636;SDS011;56860;51.144;16.954;2023-12-20T00:25:59;8.0;;;10.4;;
69636;SDS011;56860;51.144;16.954;2023-12-20T00:26:59;6.8;;;9.3;;
69636;SDS011;56860;51.144;16.954;2023-12-20T00:27:59;7.8;;;11.1;;
69636;SDS011;56860;51.144;16.954;2023-12-20T00:28:59;7.8;;;11.1;;
69636;SDS011;56860;51.144;16.954;2023-12-20T00:29:59;7.8;;;11.1;;
69636;SDS011;56860;51.144;16.954;2023-12-20T00:30:59;7.9;;;12.0;;
69636;SDS011;56860;51.144;16.954;2023-12-20T00:31:59;7.9;;;12.0;;
69636;SDS011;56860;51.144;16.954;2023-12-20T00:32:59;7.9;;;12.0;;
69636;SDS011;56860;51.144;16.954;2023-12-20T00:33:59;7.4;;;10.8;;
69636;SDS011;56860;51.144;16.954;2023-12-20T00:34:59;7.4;;;10.8;;
69636;SDS011;56860;51.144;16.954;2023-12-20T00:35:59;7.4;;;10.8;;
69636;SDS011;56860;51.144;16.954;2023-12-20T00:36:59;7.9;;;12.0;;
69636;SDS011;56860;51.144;16.954;2023-12-20T00:37:59;7.9;;;12.0;;
69636;SDS011;56860;51.144;16.954;2023-12-20T00:38:59;7.9;;;12.0;;
69636;SDS011;56860;51.144;16.954;2023-12-20T00:39:59;7.4;;;10.7;;
69636;SDS011;56860;51.144;16.954;2023-12-20T00:40:59;7.4;;;10.7;;
69636;SDS011;56860;51.144;16.954;2023-12-20T00:41:59;7.4;;;10.7;;
69636;SDS011;56860;51.144;16.954;2023-12-20T00:42:59;7.6;;;10.4;;
69636;SDS011;56860;51.144;16.954;2023-12-20T00:43:59;7.6;;;10.4;;
69636;SDS011;56860;51.144;16.954;2023-12-20T00:44:59;7.6;;;10.4;;
69636;SDS011;56860;51.144;16.954;2023-12-20T00:45:59;7.3;;;10.9;;
69636;SDS011;56860;51.144;16.954;2023-12-20T00:46:59;7.3;;;10.9;;
69636;SDS011;56860;51.144;16.954;2023-12-20T00:47:59;7.3;;;10.9;;
69636;SDS011;56860;51.144;16.954;2023-12-20T00:48:59;7.5;;;10.1;;
69636;SDS011;56860;51.144;16.954;2023-12-20T00:49:59;7.5;;;10.1;;
69636;SDS011;56860;51.144;16.954;2023-12-20T00:50:59;7.5;;;10.1;;
69636;SDS011;56860;51.144;16.954;2023-12-20T00:51:59;7.3;;;10.2;;
69636;SDS011;56860;51.144;16.954;2023-12-20T00:52:59;7.3;;;10.2;;
69636;SDS011;56860;51.144;16.954;2023-12-20T00:53:59;7.3;;;10.2;;
69636;SDS011;56860;51.144;16.954;2023-12-20T00:55:00;7.4;;;11.0;;
69636;SDS011;56860;51.144;16.954;2023-12-20T00:56:00;7.4;;;11.0;;
69636;SDS011;56860;51.144;16.954;2023-12-20T00:57:00;7.4;;;11.0;;
69636;SDS011;56860;51.144;16.954;2023-12-20T00:58:00;7.5;;;10.2;;
69636;SDS011;56860;51.144;16.954;2023-12-20T00:59:00;7.5;;;10.2;;
69636;SDS011;56860;51.144;16.954;2023-12-20T01:00:00;7.5;;;10.2;;
69636;SDS011;56860;51.144;16.954;2023-12-20T01:01:00;7.1;;;11.1;;
69636;SDS011;56860;51.144;16.954;2023-12-20T01:01:59;7.1;;;11.1;;
69636;SDS011;56860;51.144;16.954;2023-12-20T01:03:00;7.1;;;11.1;;
69636;SDS011;56860;51.144;16.954;2023-12-20T01:03:59;7.3;;;9.1;;
69636;SDS011;56860;51.144;16.954;2023-12-20T01:05:00;7.3;;;9.1;;
69636;SDS011;56860;51.144;16.954;2023-12-20T01:06:00;7.3;;;9.1;;
69636;SDS011;56860;51.144;16.954;2023-12-20T01:06:59;7.4;;;9.4;;
69636;SDS011;56860;51.144;16.954;2023-12-20T01:07:59;7.4;;;9.4;;
69636;SDS011;56860;51.144;16.954;2023-12-20T01:08:59;7.4;;;9.4;;
69636;SDS011;56860;51.144;16.954;2023-12-20T01:09:59;6.9;;;10.5;;
69636;SDS011;56860;51.144;16.954;2023-12-20T01:10:59;6.9;;;10.5;;
69636;SDS011;56860;51.144;16.954;2023-12-20T01:11:59;6.9;;;10.5;;
69636;SDS011;56860;51.144;16.954;2023-12-20T01:12:59;7.2;;;10.1;;
69636;SDS011;56860;51.144;16.954;2023-12-20T01:13:59;7.2;;;10.1;;
69636;SDS011;56860;51.144;16.954;2023-12-20T01:15:00;7.2;;;10.1;;
69636;SDS011;56860;51.144;16.954;2023-12-20T01:15:59;7.0;;;8.5;;
69636;SDS011;56860;51.144;16.954;2023-12-20T01:16:59;7.0;;;8.5;;
69636;SDS011;56860;51.144;16.954;2023-12-20T01:17:59;7.0;;;8.5;;
69636;SDS011;56860;51.144;16.954;2023-12-20T01:18:59;7.3;;;9.2;;
69636;SDS011;56860;51.144;16.954;2023-12-20T01:19:59;7.3;;;9.2;;
69636;SDS011;56860;51.144;16.954;2023-12-20T01:21:01;7.3;;;9.2;;
69636;SDS011;56860;51.144;16.954;2023-12-20T01:21:59;7.5;;;8.4;;
69636;SDS011;56860;51.144;16.954;2023-12-20T01:22:59;7.5;;;8.4;;
69636;SDS011;56860;51.144;16.954;2023-12-20T01:23:59;7.5;;;8.4;;
69636;SDS011;56860;51.144;16.954;2023-12-20T01:24:59;7.0;;;9.6;;
69636;SDS011;56860;51.144;16.954;2023-12-20T01:25:59;7.0;;;9.6;;
69636;SDS011;56860;51.144;16.954;2023-12-20T01:27:00;7.0;;;9.6;;
69636;SDS011;56860;51.144;16.954;2023-12-20T01:27:59;7.1;;;9.0;;
69636;SDS011;56860;51.144;16.954;2023-12-20T01:28:59;7.1;;;9.0;;
69636;SDS011;56860;51.144;16.954;2023-12-20T01:29:59;7.1;;;9.0;;
69636;SDS011;56860;51.144;16.954;2023-12-20T01:30:59;7.1;;;8.0;;
69636;SDS011;56860;51.144;16.954;2023-12-20T01:31:59;7.1;;;8.0;;
69636;SDS011;56860;51.144;16.954;2023-12-20T01:33:00;7.1;;;8.0;;
69636;SDS011;56860;51.144;16.954;2023-12-20T01:33:59;7.9;;;10.7;;
69636;SDS011;56860;51.144;16.954;2023-12-20T01:35:00;7.9;;;10.7;;
69636;SDS011;56860;51.144;16.954;2023-12-20T01:35:59;7.9;;;10.7;;
69636;SDS011;56860;51.144;16.954;2023-12-20T01:37:00;7.9;;;10.1;;
69636;SDS011;56860;51.144;16.954;2023-12-20T01:37:59;7.9;;;10.1;;
69636;SDS011;56860;51.144;16.954;2023-12-20T01:39:00;7.9;;;10.1;;
69636;SDS011;56860;51.144;16.954;2023-12-20T01:39:59;8.0;;;9.4;;
69636;SDS011;56860;51.144;16.954;2023-12-20T01:40:59;8.0;;;9.4;;
69636;SDS011;56860;51.144;16.954;2023-12-20T01:42:01;8.0;;;9.4;;
69636;SDS011;56860;51.144;16.954;2023-12-20T01:43:00;8.0;;;10.2;;
69636;SDS011;56860;51.144;16.954;2023-12-20T01:43:59;8.0;;;10.2;;
69636;SDS011;56860;51.144;16.954;2023-12-20T01:45:00;8.0;;;10.2;;
69636;SDS011;56860;51.144;16.954;2023-12-20T01:45:59;7.6;;;10.0;;
69636;SDS011;56860;51.144;16.954;2023-12-20T01:46:59;7.6;;;10.0;;
69636;SDS011;56860;51.144;16.954;2023-12-20T01:48:00;7.6;;;10.0;;
69636;SDS011;56860;51.144;16.954;2023-12-20T01:48:59;7.0;;;8.3;;
69636;SDS011;56860;51.144;16.954;2023-12-20T01:49:59;7.0;;;8.3;;
69636;SDS011;56860;51.144;16.954;2023-12-20T01:51:00;7.0;;;8.3;;
69636;SDS011;56860;51.144;16.954;2023-12-20T01:51:59;6.0;;;7.3;;
69636;SDS011;56860;51.144;16.954;2023-12-20T01:53:00;6.0;;;7.3;;
69636;SDS011;56860;51.144;16.954;2023-12-20T01:53:59;6.0;;;7.3;;
69636;SDS011;56860;51.144;16.954;2023-12-20T01:54:59;5.9;;;6.8;;
69636;SDS011;56860;51.144;16.954;2023-12-20T01:55:59;5.9;;;6.8;;
69636;SDS011;56860;51.144;16.954;2023-12-20T01:57:00;5.9;;;6.8;;
69636;SDS011;56860;51.144;16.954;2023-12-20T01:58:00;5.3;;;5.8;;
69636;SDS011;56860;51.144;16.954;2023-12-20T01:59:00;5.3;;;5.8;;
69636;SDS011;56860;51.144;16.954;2023-12-20T02:00:00;5.3;;;5.8;;
69636;SDS011;56860;51.144;16.954;2023-12-20T02:00:59;5.2;;;5.7;;
69636;SDS011;56860;51.144;16.954;2023-12-20T02:02:00;5.2;;;5.7;;
69636;SDS011;56860;51.144;16.954;2023-12-20T02:03:00;5.2;;;5.7;;
69636;SDS011;56860;51.144;16.954;2023-12-20T02:04:00;5.0;;;6.1;;
69636;SDS011;56860;51.144;16.954;2023-12-20T02:05:00;5.0;;;6.1;;
69636;SDS011;56860;51.144;16.954;2023-12-20T02:05:59;5.0;;;6.1;;
69636;SDS011;56860;51.144;16.954;2023-12-20T02:07:00;4.8;;;5.5;;
69636;SDS011;56860;51.144;16.954;2023-12-20T02:08:00;4.8;;;5.5;;
69636;SDS011;56860;51.144;16.954;2023-12-20T02:09:00;4.8;;;5.5;;
69636;SDS011;56860;51.144;16.954;2023-12-20T02:10:00;4.9;;;6.4;;
69636;SDS011;56860;51.144;16.954;2023-12-20T02:11:00;4.9;;;6.4;;
69636;SDS011;56860;51.144;16.954;2023-12-20T02:12:00;4.9;;;6.4;;
69636;SDS011;56860;51.144;16.954;2023-12-20T02:13:00;4.7;;;5.1;;
69636;SDS011;56860;51.144;16.954;2023-12-20T02:14:00;4.7;;;5.1;;
69636;SDS011;56860;51.144;16.954;2023-12-20T02:15:00;4.7;;;5.1;;
69636;SDS011;56860;51.144;16.954;2023-12-20T02:16:00;4.6;;;5.0;;
69636;SDS011;56860;51.144;16.954;2023-12-20T02:17:00;4.6;;;5.0;;
69636;SDS011;56860;51.144;16.954;2023-12-20T02:18:00;4.6;;;5.0;;
69636;SDS011;56860;51.144;16.954;2023-12-20T02:19:00;4.7;;;5.4;;
69636;SDS011;56860;51.144;16.954;2023-12-20T02:20:00;4.7;;;5.4;;
69636;SDS011;56860;51.144;16.954;2023-12-20T02:21:00;4.7;;;5.4;;
69636;SDS011;56860;51.144;16.954;2023-12-20T02:22:08;5.0;;;5.9;;
69636;SDS011;56860;51.144;16.954;2023-12-20T02:23:00;5.0;;;5.9;;
69636;SDS011;56860;51.144;16.954;2023-12-20T02:24:00;5.0;;;5.9;;
69636;SDS011;56860;51.144;16.954;2023-12-20T02:25:00;4.5;;;5.0;;
69636;SDS011;56860;51.144;16.954;2023-12-20T02:26:00;4.5;;;5.0;;
69636;SDS011;56860;51.144;16.954;2023-12-20T02:27:00;4.5;;;5.0;;
69636;SDS011;56860;51.144;16.954;2023-12-20T02:28:00;4.7;;;5.3;;
69636;SDS011;56860;51.144;16.954;2023-12-20T02:29:00;4.7;;;5.3;;
69636;SDS011;56860;51.144;16.954;2023-12-20T02:30:00;4.7;;;5.3;;
69636;SDS011;56860;51.144;16.954;2023-12-20T02:31:00;5.0;;;6.2;;
69636;SDS011;56860;51.144;16.954;2023-12-20T02:32:00;5.0;;;6.2;;
69636;SDS011;56860;51.144;16.954;2023-12-20T02:33:00;5.0;;;6.2;;
69636;SDS011;56860;51.144;16.954;2023-12-20T02:36:00;4.9;;;6.2;;
69636;SDS011;56860;51.144;16.954;2023-12-20T02:37:00;4.9;;;6.2;;
69636;SDS011;56860;51.144;16.954;2023-12-20T02:38:00;4.4;;;5.2;;
69636;SDS011;56860;51.144;16.954;2023-12-20T02:39:00;4.4;;;5.2;;
69636;SDS011;56860;51.144;16.954;2023-12-20T02:40:00;4.4;;;5.2;;
69636;SDS011;56860;51.144;16.954;2023-12-20T02:41:00;4.2;;;4.8;;
69636;SDS011;56860;51.144;16.954;2023-12-20T02:42:00;4.2;;;4.8;;
69636;SDS011;56860;51.144;16.954;2023-12-20T02:43:00;4.2;;;4.8;;
69636;SDS011;56860;51.144;16.954;2023-12-20T02:44:01;4.6;;;5.1;;
69636;SDS011;56860;51.144;16.954;2023-12-20T02:45:00;4.6;;;5.1;;
69636;SDS011;56860;51.144;16.954;2023-12-20T02:46:00;4.6;;;5.1;;
69636;SDS011;56860;51.144;16.954;2023-12-20T02:47:00;4.9;;;5.4;;
69636;SDS011;56860;51.144;16.954;2023-12-20T02:48:00;4.9;;;5.4;;
69636;SDS011;56860;51.144;16.954;2023-12-20T02:49:00;4.9;;;5.4;;
69636;SDS011;56860;51.144;16.954;2023-12-20T02:50:00;4.7;;;6.5;;
69636;SDS011;56860;51.144;16.954;2023-12-20T02:51:00;4.7;;;6.5;;
69636;SDS011;56860;51.144;16.954;2023-12-20T02:52:00;4.7;;;6.5;;
69636;SDS011;56860;51.144;16.954;2023-12-20T02:53:00;4.4;;;4.8;;
69636;SDS011;56860;51.144;16.954;2023-12-20T02:54:00;4.4;;;4.8;;
69636;SDS011;56860;51.144;16.954;2023-12-20T02:55:00;4.4;;;4.8;;
69636;SDS011;56860;51.144;16.954;2023-12-20T02:56:00;4.5;;;5.3;;
69636;SDS011;56860;51.144;16.954;2023-12-20T02:57:01;4.5;;;5.3;;
69636;SDS011;56860;51.144;16.954;2023-12-20T02:58:00;4.5;;;5.3;;
69636;SDS011;56860;51.144;16.954;2023-12-20T02:59:00;4.3;;;4.7;;
69636;SDS011;56860;51.144;16.954;2023-12-20T03:00:00;4.3;;;4.7;;
69636;SDS011;56860;51.144;16.954;2023-12-20T03:01:00;4.3;;;4.7;;
69636;SDS011;56860;51.144;16.954;2023-12-20T03:02:00;4.5;;;4.9;;
69636;SDS011;56860;51.144;16.954;2023-12-20T03:03:00;4.5;;;4.9;;
69636;SDS011;56860;51.144;16.954;2023-12-20T03:04:00;4.5;;;4.9;;
69636;SDS011;56860;51.144;16.954;2023-12-20T03:05:00;4.4;;;5.2;;
69636;SDS011;56860;51.144;16.954;2023-12-20T03:06:00;4.4;;;5.2;;
69636;SDS011;56860;51.144;16.954;2023-12-20T03:07:00;4.4;;;5.2;;
69636;SDS011;56860;51.144;16.954;2023-12-20T03:08:00;4.1;;;4.8;;
69636;SDS011;56860;51.144;16.954;2023-12-20T03:09:00;4.1;;;4.8;;
69636;SDS011;56860;51.144;16.954;2023-12-20T03:10:00;4.1;;;4.8;;
69636;SDS011;56860;51.144;16.954;2023-12-20T03:11:00;4.4;;;4.8;;
69636;SDS011;56860;51.144;16.954;2023-12-20T03:12:00;4.4;;;4.8;;
69636;SDS011;56860;51.144;16.954;2023-12-20T03:13:00;4.4;;;4.8;;
69636;SDS011;56860;51.144;16.954;2023-12-20T03:14:00;4.4;;;4.9;;
69636;SDS011;56860;51.144;16.954;2023-12-20T03:15:00;4.4;;;4.9;;
69636;SDS011;56860;51.144;16.954;2023-12-20T03:16:00;4.4;;;4.9;;
69636;SDS011;56860;51.144;16.954;2023-12-20T03:17:00;4.6;;;5.8;;
69636;SDS011;56860;51.144;16.954;2023-12-20T03:18:00;4.6;;;5.8;;
69636;SDS011;56860;51.144;16.954;2023-12-20T03:19:00;4.6;;;5.8;;
69636;SDS011;56860;51.144;16.954;2023-12-20T03:20:00;4.5;;;5.9;;
69636;SDS011;56860;51.144;16.954;2023-12-20T03:21:00;4.5;;;5.9;;
69636;SDS011;56860;51.144;16.954;2023-12-20T03:22:00;4.5;;;5.9;;
69636;SDS011;56860;51.144;16.954;2023-12-20T03:23:00;5.0;;;7.2;;
69636;SDS011;56860;51.144;16.954;2023-12-20T03:24:00;5.0;;;7.2;;
69636;SDS011;56860;51.144;16.954;2023-12-20T03:25:00;5.0;;;7.2;;
69636;SDS011;56860;51.144;16.954;2023-12-20T03:26:00;4.4;;;5.5;;
69636;SDS011;56860;51.144;16.954;2023-12-20T03:27:00;4.4;;;5.5;;
69636;SDS011;56860;51.144;16.954;2023-12-20T03:28:00;4.4;;;5.5;;
69636;SDS011;56860;51.144;16.954;2023-12-20T03:29:00;4.4;;;6.9;;
69636;SDS011;56860;51.144;16.954;2023-12-20T03:30:00;4.4;;;6.9;;
69636;SDS011;56860;51.144;16.954;2023-12-20T03:31:00;4.4;;;6.9;;
69636;SDS011;56860;51.144;16.954;2023-12-20T03:32:00;4.0;;;5.4;;
69636;SDS011;56860;51.144;16.954;2023-12-20T03:33:00;4.0;;;5.4;;
69636;SDS011;56860;51.144;16.954;2023-12-20T03:34:00;4.0;;;5.4;;
69636;SDS011;56860;51.144;16.954;2023-12-20T03:35:00;4.0;;;4.8;;
69636;SDS011;56860;51.144;16.954;2023-12-20T03:36:00;4.0;;;4.8;;
69636;SDS011;56860;51.144;16.954;2023-12-20T03:37:00;4.0;;;4.8;;
69636;SDS011;56860;51.144;16.954;2023-12-20T03:38:00;3.2;;;3.5;;
69636;SDS011;56860;51.144;16.954;2023-12-20T03:39:00;3.2;;;3.5;;
69636;SDS011;56860;51.144;16.954;2023-12-20T03:40:00;3.2;;;3.5;;
69636;SDS011;56860;51.144;16.954;2023-12-20T03:41:00;3.6;;;3.9;;
69636;SDS011;56860;51.144;16.954;2023-12-20T03:42:00;3.6;;;3.9;;
69636;SDS011;56860;51.144;16.954;2023-12-20T03:43:00;3.6;;;3.9;;
69636;SDS011;56860;51.144;16.954;2023-12-20T03:44:00;3.6;;;3.9;;
69636;SDS011;56860;51.144;16.954;2023-12-20T03:45:00;3.6;;;3.9;;
69636;SDS011;56860;51.144;16.954;2023-12-20T03:46:00;3.6;;;3.9;;
69636;SDS011;56860;51.144;16.954;2023-12-20T03:47:00;3.5;;;3.8;;
69636;SDS011;56860;51.144;16.954;2023-12-20T03:48:00;3.5;;;3.8;;
69636;SDS011;56860;51.144;16.954;2023-12-20T03:49:00;3.5;;;3.8;;
69636;SDS011;56860;51.144;16.954;2023-12-20T03:50:00;3.5;;;3.9;;
69636;SDS011;56860;51.144;16.954;2023-12-20T03:51:00;3.5;;;3.9;;
69636;SDS011;56860;51.144;16.954;2023-12-20T03:52:00;3.5;;;3.9;;
69636;SDS011;56860;51.144;16.954;2023-12-20T03:53:00;3.8;;;4.8;;
69636;SDS011;56860;51.144;16.954;2023-12-20T03:54:00;3.8;;;4.8;;
69636;SDS011;56860;51.144;16.954;2023-12-20T03:55:00;3.8;;;4.8;;
69636;SDS011;56860;51.144;16.954;2023-12-20T03:56:00;3.6;;;4.1;;
69636;SDS011;56860;51.144;16.954;2023-12-20T03:57:00;3.6;;;4.1;;
69636;SDS011;56860;51.144;16.954;2023-12-20T03:58:00;3.6;;;4.1;;
69636;SDS011;56860;51.144;16.954;2023-12-20T03:59:00;3.5;;;3.9;;
69636;SDS011;56860;51.144;16.954;2023-12-20T04:00:00;3.5;;;3.9;;
69636;SDS011;56860;51.144;16.954;2023-12-20T04:01:00;3.5;;;3.9;;
69636;SDS011;56860;51.144;16.954;2023-12-20T04:02:00;3.4;;;3.8;;
69636;SDS011;56860;51.144;16.954;2023-12-20T04:03:00;3.4;;;3.8;;
69636;SDS011;56860;51.144;16.954;2023-12-20T04:04:00;3.4;;;3.8;;
69636;SDS011;56860;51.144;16.954;2023-12-20T04:05:00;3.4;;;3.7;;
69636;SDS011;56860;51.144;16.954;2023-12-20T04:06:00;3.4;;;3.7;;
69636;SDS011;56860;51.144;16.954;2023-12-20T04:07:00;3.4;;;3.7;;
69636;SDS011;56860;51.144;16.954;2023-12-20T04:08:01;2.9;;;3.1;;
69636;SDS011;56860;51.144;16.954;2023-12-20T04:09:00;2.9;;;3.1;;
69636;SDS011;56860;51.144;16.954;2023-12-20T04:10:00;2.9;;;3.1;;
69636;SDS011;56860;51.144;16.954;2023-12-20T04:11:00;3.2;;;3.5;;
69636;SDS011;56860;51.144;16.954;2023-12-20T04:12:00;3.2;;;3.5;;
69636;SDS011;56860;51.144;16.954;2023-12-20T04:13:00;3.2;;;3.5;;
69636;SDS011;56860;51.144;16.954;2023-12-20T04:14:00;3.2;;;3.5;;
69636;SDS011;56860;51.144;16.954;2023-12-20T04:15:00;3.2;;;3.5;;
69636;SDS011;56860;51.144;16.954;2023-12-20T04:16:00;3.2;;;3.5;;
69636;SDS011;56860;51.144;16.954;2023-12-20T04:17:00;3.0;;;3.2;;
69636;SDS011;56860;51.144;16.954;2023-12-20T04:18:00;3.0;;;3.2;;
69636;SDS011;56860;51.144;16.954;2023-12-20T04:19:00;3.0;;;3.2;;
69636;SDS011;56860;51.144;16.954;2023-12-20T04:20:00;3.1;;;3.3;;
69636;SDS011;56860;51.144;16.954;2023-12-20T04:21:00;3.1;;;3.3;;
69636;SDS011;56860;51.144;16.954;2023-12-20T04:22:00;3.1;;;3.3;;
69636;SDS011;56860;51.144;16.954;2023-12-20T04:23:00;3.2;;;3.4;;
69636;SDS011;56860;51.144;16.954;2023-12-20T04:24:00;3.2;;;3.4;;
69636;SDS011;56860;51.144;16.954;2023-12-20T04:25:00;3.2;;;3.4;;
69636;SDS011;56860;51.144;16.954;2023-12-20T04:26:00;3.1;;;3.4;;
69636;SDS011;56860;51.144;16.954;2023-12-20T04:27:00;3.1;;;3.4;;
69636;SDS011;56860;51.144;16.954;2023-12-20T04:28:00;3.1;;;3.4;;
69636;SDS011;56860;51.144;16.954;2023-12-20T04:29:00;3.3;;;3.6;;
69636;SDS011;56860;51.144;16.954;2023-12-20T04:30:00;3.3;;;3.6;;
69636;SDS011;56860;51.144;16.954;2023-12-20T04:31:00;3.3;;;3.6;;
69636;SDS011;56860;51.144;16.954;2023-12-20T04:32:00;3.2;;;3.4;;
69636;SDS011;56860;51.144;16.954;2023-12-20T04:33:00;3.2;;;3.4;;
69636;SDS011;56860;51.144;16.954;2023-12-20T04:34:00;3.2;;;3.4;;
69636;SDS011;56860;51.144;16.954;2023-12-20T04:35:00;3.6;;;3.8;;
69636;SDS011;56860;51.144;16.954;2023-12-20T04:36:00;3.6;;;3.9;;
69636;SDS011;56860;51.144;16.954;2023-12-20T04:37:00;3.6;;;3.9;;
69636;SDS011;56860;51.144;16.954;2023-12-20T04:38:00;3.4;;;3.8;;
69636;SDS011;56860;51.144;16.954;2023-12-20T04:39:00;3.5;;;3.9;;
69636;SDS011;56860;51.144;16.954;2023-12-20T04:40:00;3.5;;;3.9;;
69636;SDS011;56860;51.144;16.954;2023-12-20T04:41:00;3.8;;;4.9;;
69636;SDS011;56860;51.144;16.954;2023-12-20T04:42:00;3.6;;;4.7;;
69636;SDS011;56860;51.144;16.954;2023-12-20T04:43:01;3.6;;;4.7;;
69636;SDS011;56860;51.144;16.954;2023-12-20T04:44:00;3.3;;;3.6;;
69636;SDS011;56860;51.144;16.954;2023-12-20T04:45:00;3.3;;;3.7;;
69636;SDS011;56860;51.144;16.954;2023-12-20T04:46:00;3.3;;;3.7;;
69636;SDS011;56860;51.144;16.954;2023-12-20T04:47:00;3.2;;;3.4;;
69636;SDS011;56860;51.144;16.954;2023-12-20T04:48:01;3.2;;;3.4;;
69636;SDS011;56860;51.144;16.954;2023-12-20T04:49:01;3.2;;;3.4;;
69636;SDS011;56860;51.144;16.954;2023-12-20T04:50:00;4.0;;;4.3;;
69636;SDS011;56860;51.144;16.954;2023-12-20T04:51:01;3.8;;;4.1;;
69636;SDS011;56860;51.144;16.954;2023-12-20T04:52:00;3.8;;;4.1;;
69636;SDS011;56860;51.144;16.954;2023-12-20T04:53:00;3.4;;;6.6;;
69636;SDS011;56860;51.144;16.954;2023-12-20T04:54:01;3.5;;;4.0;;
69636;SDS011;56860;51.144;16.954;2023-12-20T04:55:01;3.5;;;4.0;;
69636;SDS011;56860;51.144;16.954;2023-12-20T04:56:01;3.3;;;3.5;;
69636;SDS011;56860;51.144;16.954;2023-12-20T04:57:01;3.6;;;3.9;;
69636;SDS011;56860;51.144;16.954;2023-12-20T04:58:01;3.6;;;3.9;;
69636;SDS011;56860;51.144;16.954;2023-12-20T04:59:01;3.6;;;3.9;;
69636;SDS011;56860;51.144;16.954;2023-12-20T05:00:01;3.7;;;4.0;;
69636;SDS011;56860;51.144;16.954;2023-12-20T05:01:01;3.7;;;4.0;;
69636;SDS011;56860;51.144;16.954;2023-12-20T05:02:01;3.7;;;4.0;;
69636;SDS011;56860;51.144;16.954;2023-12-20T05:03:01;3.2;;;3.4;;
69636;SDS011;56860;51.144;16.954;2023-12-20T05:04:01;3.2;;;3.4;;
69636;SDS011;56860;51.144;16.954;2023-12-20T05:05:01;3.2;;;3.4;;
69636;SDS011;56860;51.144;16.954;2023-12-20T05:06:01;3.3;;;3.7;;
69636;SDS011;56860;51.144;16.954;2023-12-20T05:07:01;3.3;;;3.7;;
69636;SDS011;56860;51.144;16.954;2023-12-20T05:08:01;3.3;;;3.7;;
69636;SDS011;56860;51.144;16.954;2023-12-20T05:09:01;3.2;;;3.4;;
69636;SDS011;56860;51.144;16.954;2023-12-20T05:10:01;3.2;;;3.4;;
69636;SDS011;56860;51.144;16.954;2023-12-20T05:11:01;3.2;;;3.4;;
69636;SDS011;56860;51.144;16.954;2023-12-20T05:12:01;3.5;;;3.7;;
69636;SDS011;56860;51.144;16.954;2023-12-20T05:13:01;3.5;;;3.7;;
69636;SDS011;56860;51.144;16.954;2023-12-20T05:14:01;3.5;;;3.7;;
69636;SDS011;56860;51.144;16.954;2023-12-20T05:15:01;3.3;;;3.5;;
69636;SDS011;56860;51.144;16.954;2023-12-20T05:16:01;3.3;;;3.5;;
69636;SDS011;56860;51.144;16.954;2023-12-20T05:17:01;3.3;;;3.5;;
69636;SDS011;56860;51.144;16.954;2023-12-20T05:18:01;3.6;;;3.9;;
69636;SDS011;56860;51.144;16.954;2023-12-20T05:19:01;3.6;;;3.9;;
69636;SDS011;56860;51.144;16.954;2023-12-20T05:20:01;3.6;;;3.9;;
69636;SDS011;56860;51.144;16.954;2023-12-20T05:21:01;3.4;;;3.6;;
69636;SDS011;56860;51.144;16.954;2023-12-20T05:22:01;3.4;;;3.6;;
69636;SDS011;56860;51.144;16.954;2023-12-20T05:23:03;3.4;;;3.6;;
69636;SDS011;56860;51.144;16.954;2023-12-20T05:24:01;3.3;;;3.9;;
69636;SDS011;56860;51.144;16.954;2023-12-20T05:25:01;3.3;;;3.9;;
69636;SDS011;56860;51.144;16.954;2023-12-20T05:26:01;3.3;;;3.9;;
69636;SDS011;56860;51.144;16.954;2023-12-20T05:27:01;3.4;;;3.6;;
69636;SDS011;56860;51.144;16.954;2023-12-20T05:28:01;3.4;;;3.6;;
69636;SDS011;56860;51.144;16.954;2023-12-20T05:29:01;3.4;;;3.6;;
69636;SDS011;56860;51.144;16.954;2023-12-20T05:30:01;3.6;;;3.9;;
69636;SDS011;56860;51.144;16.954;2023-12-20T05:31:01;3.6;;;3.9;;
69636;SDS011;56860;51.144;16.954;2023-12-20T05:32:01;3.6;;;3.9;;
69636;SDS011;56860;51.144;16.954;2023-12-20T05:33:01;3.3;;;3.6;;
69636;SDS011;56860;51.144;16.954;2023-12-20T05:34:01;3.3;;;3.6;;
69636;SDS011;56860;51.144;16.954;2023-12-20T05:35:01;3.3;;;3.6;;
69636;SDS011;56860;51.144;16.954;2023-12-20T05:36:01;3.7;;;4.1;;
69636;SDS011;56860;51.144;16.954;2023-12-20T05:37:01;3.7;;;4.1;;
69636;SDS011;56860;51.144;16.954;2023-12-20T05:38:01;3.7;;;4.1;;
69636;SDS011;56860;51.144;16.954;2023-12-20T05:39:01;3.7;;;4.1;;
69636;SDS011;56860;51.144;16.954;2023-12-20T05:40:01;3.7;;;4.1;;
69636;SDS011;56860;51.144;16.954;2023-12-20T05:41:01;3.7;;;4.1;;
69636;SDS011;56860;51.144;16.954;2023-12-20T05:42:01;3.9;;;4.5;;
69636;SDS011;56860;51.144;16.954;2023-12-20T05:43:01;3.9;;;4.5;;
69636;SDS011;56860;51.144;16.954;2023-12-20T05:44:01;3.9;;;4.5;;
69636;SDS011;56860;51.144;16.954;2023-12-20T05:45:01;4.3;;;4.7;;
69636;SDS011;56860;51.144;16.954;2023-12-20T05:46:01;4.3;;;4.7;;
69636;SDS011;56860;51.144;16.954;2023-12-20T05:47:01;4.3;;;4.7;;
69636;SDS011;56860;51.144;16.954;2023-12-20T05:48:01;4.7;;;5.6;;
69636;SDS011;56860;51.144;16.954;2023-12-20T05:49:01;4.7;;;5.6;;
69636;SDS011;56860;51.144;16.954;2023-12-20T05:50:01;4.7;;;5.6;;
69636;SDS011;56860;51.144;16.954;2023-12-20T05:51:01;4.4;;;4.9;;
69636;SDS011;56860;51.144;16.954;2023-12-20T05:52:02;4.4;;;4.9;;
69636;SDS011;56860;51.144;16.954;2023-12-20T05:53:02;4.4;;;4.9;;
69636;SDS011;56860;51.144;16.954;2023-12-20T05:54:02;4.7;;;5.8;;
69636;SDS011;56860;51.144;16.954;2023-12-20T05:55:02;4.7;;;5.8;;
69636;SDS011;56860;51.144;16.954;2023-12-20T05:56:02;4.7;;;5.8;;
69636;SDS011;56860;51.144;16.954;2023-12-20T05:57:02;4.7;;;6.0;;
69636;SDS011;56860;51.144;16.954;2023-12-20T05:58:02;4.7;;;6.0;;
69636;SDS011;56860;51.144;16.954;2023-12-20T05:59:02;4.7;;;6.0;;
69636;SDS011;56860;51.144;16.954;2023-12-20T06:00:02;4.2;;;4.5;;
69636;SDS011;56860;51.144;16.954;2023-12-20T06:01:03;4.2;;;4.5;;
69636;SDS011;56860;51.144;16.954;2023-12-20T06:02:03;4.2;;;4.5;;
69636;SDS011;56860;51.144;16.954;2023-12-20T06:03:02;4.1;;;4.5;;
69636;SDS011;56860;51.144;16.954;2023-12-20T06:04:02;4.1;;;4.5;;
69636;SDS011;56860;51.144;16.954;2023-12-20T06:05:03;4.1;;;4.5;;
69636;SDS011;56860;51.144;16.954;2023-12-20T06:06:04;3.4;;;3.7;;
69636;SDS011;56860;51.144;16.954;2023-12-20T06:07:02;3.4;;;3.7;;
69636;SDS011;56860;51.144;16.954;2023-12-20T06:08:02;3.4;;;3.7;;